createdAt,value
2022-08-17T00:00:05.104Z,81.24
2022-08-17T00:02:38.305Z,80.85
2022-08-17T00:05:11.883Z,80.45
2022-08-17T00:07:39.331Z,80.10
2022-08-17T00:10:07.986Z,80.00
2022-08-17T00:12:44.381Z,79.78
2022-08-17T00:15:13.504Z,79.47
2022-08-17T00:17:42.044Z,79.53
2022-08-17T00:20:10.159Z,79.53
2022-08-17T00:22:38.952Z,79.69
2022-08-17T00:25:10.315Z,79.44
2022-08-17T00:27:37.802Z,79.59
2022-08-17T00:30:07.528Z,79.54
2022-08-17T00:33:14.906Z,79.34
2022-08-17T00:35:27.698Z,78.41
2022-08-17T00:37:56.496Z,79.98
2022-08-17T00:40:25.675Z,80.07
2022-08-17T00:42:54.060Z,79.65
2022-08-17T00:45:22.695Z,79.37
2022-08-17T00:47:50.344Z,79.54
2022-08-17T00:50:19.890Z,79.70
2022-08-17T00:52:55.080Z,79.05
2022-08-17T00:55:26.273Z,79.13
2022-08-17T00:57:59.398Z,79.78
2022-08-17T01:00:29.970Z,79.32
2022-08-17T01:03:01.329Z,79.39
2022-08-17T01:05:32.053Z,79.65
2022-08-17T01:08:00.909Z,79.69
2022-08-17T01:10:58.656Z,80.44
2022-08-17T01:13:22.532Z,80.59
2022-08-17T01:15:55.894Z,80.80
2022-08-17T01:18:23.765Z,81.13
2022-08-17T01:20:53.964Z,80.66
2022-08-17T01:23:25.329Z,80.34
2022-08-17T01:25:57.338Z,80.72
2022-08-17T01:28:36.476Z,80.79
2022-08-17T01:31:15.926Z,80.32
2022-08-17T01:33:43.413Z,80.51
2022-08-17T01:36:11.171Z,80.09
2022-08-17T01:38:40.590Z,79.80
2022-08-17T01:41:12.734Z,79.56
2022-08-17T01:43:44.878Z,79.36
2022-08-17T01:46:17.820Z,79.51
2022-08-17T01:48:47.321Z,79.24
2022-08-17T01:51:16.389Z,79.07
2022-08-17T01:53:49.195Z,79.09
2022-08-17T01:56:20.736Z,79.54
2022-08-17T01:58:48.631Z,79.99
2022-08-17T02:01:20.843Z,80.04
2022-08-17T02:03:59.040Z,79.98
2022-08-17T02:06:31.435Z,80.41
2022-08-17T02:09:16.411Z,80.64
2022-08-17T02:11:45.342Z,80.59
2022-08-17T02:14:14.532Z,80.35
2022-08-17T02:16:42.822Z,80.08
2022-08-17T02:19:12.786Z,79.71
2022-08-17T02:21:41.593Z,80.05
2022-08-17T02:24:13.558Z,79.74
2022-08-17T02:26:41.128Z,79.70
2022-08-17T02:29:08.598Z,79.42
2022-08-17T02:31:36.101Z,79.24
2022-08-17T02:34:05.194Z,79.14
2022-08-17T02:36:34.574Z,79.00
2022-08-17T02:39:02.450Z,78.94
2022-08-17T02:41:31.312Z,78.42
2022-08-17T02:43:58.858Z,78.18
2022-08-17T02:46:26.484Z,78.21
2022-08-17T02:48:53.914Z,78.29
2022-08-17T02:51:21.390Z,78.08
2022-08-17T02:53:49.040Z,78.42
2022-08-17T02:56:16.482Z,78.99
2022-08-17T02:58:46.182Z,79.10
2022-08-17T03:01:14.004Z,78.58
2022-08-17T03:03:41.926Z,78.05
2022-08-17T03:06:10.369Z,78.22
2022-08-17T03:08:38.396Z,78.29
2022-08-17T03:11:05.956Z,78.44
2022-08-17T03:13:33.971Z,78.36
2022-08-17T03:16:03.039Z,78.63
2022-08-17T03:18:30.598Z,78.44
2022-08-17T03:21:00.150Z,78.56
2022-08-17T03:23:29.556Z,78.33
2022-08-17T03:25:57.657Z,78.14
2022-08-17T03:28:26.315Z,77.88
2022-08-17T03:30:53.818Z,77.86
2022-08-17T03:33:22.920Z,78.38
2022-08-17T03:35:50.836Z,78.57
2022-08-17T03:38:18.656Z,78.71
2022-08-17T03:40:58.203Z,78.66
2022-08-17T03:43:28.502Z,78.64
2022-08-17T03:46:28.610Z,78.78
2022-08-17T03:49:20.712Z,78.70
2022-08-17T03:52:05.944Z,78.42
2022-08-17T03:54:51.344Z,77.73
2022-08-17T03:57:18.988Z,76.97
2022-08-17T03:59:46.494Z,77.27
2022-08-17T04:02:19.648Z,76.91
2022-08-17T04:04:50.600Z,76.73
2022-08-17T04:07:18.592Z,76.60
2022-08-17T04:09:46.062Z,76.77
2022-08-17T04:12:16.246Z,76.89
2022-08-17T04:14:52.085Z,76.77
2022-08-17T04:17:24.017Z,76.51
2022-08-17T04:19:53.263Z,76.20
2022-08-17T04:22:32.737Z,75.87
2022-08-17T04:25:04.097Z,75.47
2022-08-17T04:27:31.655Z,75.21
2022-08-17T04:29:59.423Z,74.84
2022-08-17T04:33:03.436Z,74.57
2022-08-17T04:35:20.203Z,75.37
2022-08-17T04:37:47.836Z,75.63
2022-08-17T04:40:32.943Z,75.59
2022-08-17T04:43:05.765Z,75.15
2022-08-17T04:45:33.241Z,74.87
2022-08-17T04:48:01.170Z,74.39
2022-08-17T04:50:30.054Z,73.93
2022-08-17T04:52:57.866Z,73.53
2022-08-17T04:55:25.540Z,73.19
2022-08-17T04:57:53.052Z,72.81
2022-08-17T05:00:20.855Z,72.98
2022-08-17T05:02:49.581Z,72.84
2022-08-17T05:05:19.865Z,72.83
2022-08-17T05:07:52.114Z,73.16
2022-08-17T05:10:19.938Z,72.87
2022-08-17T05:12:47.412Z,72.71
2022-08-17T05:15:16.248Z,72.21
2022-08-17T05:17:43.778Z,72.17
2022-08-17T05:20:12.310Z,72.14
2022-08-17T05:22:50.977Z,72.11
2022-08-17T05:25:23.941Z,72.10
2022-08-17T05:27:54.088Z,72.06
2022-08-17T05:30:22.612Z,72.16
2022-08-17T05:32:54.997Z,72.00
2022-08-17T05:35:23.112Z,72.17
2022-08-17T05:37:52.451Z,72.14
2022-08-17T05:40:21.599Z,71.94
2022-08-17T05:42:49.952Z,71.70
2022-08-17T05:45:32.099Z,71.20
2022-08-17T05:48:10.164Z,70.77
2022-08-17T05:50:52.653Z,70.54
2022-08-17T05:53:30.097Z,70.83
2022-08-17T05:56:30.369Z,70.68
2022-08-17T05:59:09.104Z,70.52
2022-08-17T06:01:48.722Z,69.78
2022-08-17T06:04:28.314Z,68.44
2022-08-17T06:07:06.091Z,67.42
2022-08-17T06:09:41.547Z,67.44
2022-08-17T06:12:29.311Z,67.58
2022-08-17T06:15:10.584Z,67.62
2022-08-17T06:17:38.891Z,67.73
2022-08-17T06:20:13.372Z,67.48
2022-08-17T06:22:45.604Z,67.62
2022-08-17T06:25:18.865Z,67.96
2022-08-17T06:27:53.991Z,67.24
2022-08-17T06:30:24.776Z,67.11
2022-08-17T06:32:54.303Z,66.90
2022-08-17T06:35:31.995Z,66.41
2022-08-17T06:38:10.371Z,67.20
2022-08-17T06:41:12.519Z,66.81
2022-08-17T06:43:51.513Z,67.27
2022-08-17T06:46:25.183Z,67.27
2022-08-17T06:49:07.362Z,66.73
2022-08-17T06:51:40.310Z,69.18
2022-08-17T06:54:11.321Z,70.87
2022-08-17T06:56:54.320Z,71.41
2022-08-17T06:59:47.130Z,72.30
2022-08-17T07:02:29.383Z,71.93
2022-08-17T07:05:14.104Z,72.45
2022-08-17T07:08:03.804Z,72.74
2022-08-17T07:10:38.773Z,71.83
2022-08-17T07:13:44.398Z,76.02
2022-08-17T07:16:24.026Z,75.66
2022-08-17T07:18:54.648Z,74.05
2022-08-17T07:21:38.379Z,73.37
2022-08-17T07:24:29.367Z,73.51
2022-08-17T07:27:07.458Z,74.56
2022-08-17T07:29:40.695Z,75.51
2022-08-17T07:32:10.787Z,74.59
2022-08-17T07:35:11.128Z,75.32
2022-08-17T07:37:40.296Z,76.30
2022-08-17T07:40:22.023Z,76.57
2022-08-17T07:43:04.994Z,75.68
2022-08-17T07:45:53.162Z,73.72
2022-08-17T07:48:23.164Z,74.25
2022-08-17T07:50:53.058Z,74.72
2022-08-17T07:53:23.083Z,75.29
2022-08-17T07:55:51.870Z,76.52
2022-08-17T07:58:21.987Z,77.69
2022-08-17T08:01:05.237Z,78.02
2022-08-17T08:03:33.974Z,77.57
2022-08-17T08:06:03.940Z,78.19
2022-08-17T08:08:35.126Z,78.06
2022-08-17T08:11:07.265Z,78.14
2022-08-17T08:13:42.132Z,77.66
2022-08-17T08:16:24.658Z,77.98
2022-08-17T08:18:57.169Z,77.95
2022-08-17T08:21:34.112Z,77.74
2022-08-17T08:24:17.199Z,76.98
2022-08-17T08:26:57.923Z,77.34
2022-08-17T08:29:32.602Z,78.50
2022-08-17T08:32:07.504Z,79.82
2022-08-17T08:35:00.635Z,78.72
2022-08-17T08:37:43.231Z,79.56
2022-08-17T08:40:20.430Z,79.76
2022-08-17T08:42:57.916Z,80.32
2022-08-17T08:45:33.927Z,81.61
2022-08-17T08:48:45.929Z,81.37
2022-08-17T08:51:16.368Z,81.64
2022-08-17T08:53:53.151Z,82.74
2022-08-17T08:56:28.124Z,82.79
2022-08-17T08:59:04.068Z,83.46
2022-08-17T09:01:40.100Z,83.92
2022-08-17T09:04:25.252Z,84.24
2022-08-17T09:07:03.264Z,84.42
2022-08-17T09:09:43.583Z,83.20
2022-08-17T09:12:18.394Z,84.92
2022-08-17T09:14:55.395Z,85.41
2022-08-17T09:17:31.136Z,84.68
2022-08-17T09:20:05.802Z,83.71
2022-08-17T09:22:38.057Z,84.08
2022-08-17T09:25:10.256Z,81.07
2022-08-17T09:27:51.193Z,81.49
2022-08-17T09:30:19.364Z,81.59
2022-08-17T09:32:55.165Z,83.76
2022-08-17T09:35:32.743Z,80.25
2022-08-17T09:38:11.994Z,82.03
2022-08-17T09:40:48.303Z,80.82
2022-08-17T09:43:26.836Z,80.62
2022-08-17T09:45:58.680Z,78.92
2022-08-17T09:48:31.636Z,79.04
2022-08-17T09:51:06.906Z,77.08
2022-08-17T09:53:37.090Z,77.94
2022-08-17T09:56:17.921Z,77.88
2022-08-17T09:58:56.460Z,77.40
2022-08-17T10:01:36.626Z,75.30
2022-08-17T10:04:22.868Z,74.77
2022-08-17T10:07:01.940Z,75.35
2022-08-17T10:09:44.460Z,74.24
2022-08-17T10:12:29.820Z,72.40
2022-08-17T10:15:09.681Z,74.50
2022-08-17T10:17:44.689Z,74.15
2022-08-17T10:20:17.631Z,73.96
2022-08-17T10:23:22.542Z,73.67
2022-08-17T10:26:08.797Z,72.18
2022-08-17T10:28:41.412Z,69.70
2022-08-17T10:31:34.202Z,71.32
2022-08-17T10:34:28.222Z,71.79
2022-08-17T10:37:06.694Z,71.33
2022-08-17T10:39:51.972Z,69.09
2022-08-17T10:42:30.473Z,70.14
2022-08-17T10:45:06.864Z,72.74
2022-08-17T10:48:04.811Z,73.60
2022-08-17T10:50:58.458Z,72.62
2022-08-17T10:53:51.888Z,72.88
2022-08-17T10:56:23.577Z,72.73
2022-08-17T10:58:54.352Z,72.22
2022-08-17T11:01:44.254Z,74.41
2022-08-17T11:04:25.709Z,75.73
2022-08-17T11:07:04.135Z,76.89
2022-08-17T11:09:45.581Z,76.99
2022-08-17T11:12:27.532Z,77.62
2022-08-17T11:15:13.157Z,77.62
2022-08-17T11:18:01.594Z,78.63
2022-08-17T11:21:01.938Z,77.79
2022-08-17T11:23:46.305Z,75.16
2022-08-17T11:26:26.009Z,74.82
2022-08-17T11:28:59.950Z,74.23
2022-08-17T11:31:38.904Z,74.53
2022-08-17T11:34:14.308Z,74.42
2022-08-17T11:37:08.691Z,75.02
2022-08-17T11:39:52.706Z,74.02
2022-08-17T11:42:34.245Z,75.32
2022-08-17T11:45:31.694Z,75.14
2022-08-17T11:48:28.129Z,73.84
2022-08-17T11:51:18.627Z,72.43
2022-08-17T11:54:31.188Z,73.93
2022-08-17T11:56:52.738Z,74.36
2022-08-17T11:59:55.218Z,72.82
2022-08-17T12:02:46.938Z,71.92
2022-08-17T12:05:42.888Z,71.05
2022-08-17T12:08:19.544Z,71.99
2022-08-17T12:10:57.256Z,71.91
2022-08-17T12:13:30.441Z,70.71
2022-08-17T12:15:59.530Z,71.96
2022-08-17T12:18:31.926Z,72.21
2022-08-17T12:21:15.284Z,72.66
2022-08-17T12:23:55.226Z,71.61
2022-08-17T12:26:26.760Z,70.81
2022-08-17T12:28:59.673Z,68.54
2022-08-17T12:31:31.739Z,69.59
2022-08-17T12:34:00.614Z,69.76
2022-08-17T12:36:29.573Z,70.01
2022-08-17T12:39:14.201Z,70.23
2022-08-17T12:41:46.690Z,70.71
2022-08-17T12:44:17.272Z,71.63
2022-08-17T12:46:53.352Z,71.36
2022-08-17T12:49:26.291Z,73.33
2022-08-17T12:52:11.722Z,75.93
2022-08-17T12:54:46.557Z,75.25
2022-08-17T12:57:18.074Z,75.40
2022-08-17T12:59:51.356Z,77.73
2022-08-17T13:02:33.389Z,78.17
2022-08-17T13:05:02.963Z,78.78
2022-08-17T13:07:36.108Z,80.03
2022-08-17T13:10:04.891Z,80.74
2022-08-17T13:12:35.667Z,81.29
2022-08-17T13:15:03.808Z,81.00
2022-08-17T13:17:35.251Z,80.23
2022-08-17T13:20:06.689Z,80.28
2022-08-17T13:22:34.262Z,80.15
2022-08-17T13:25:05.407Z,79.94
2022-08-17T13:27:34.069Z,78.18
2022-08-17T13:30:05.490Z,80.14
2022-08-17T13:32:43.941Z,78.26
2022-08-17T13:35:53.199Z,80.50
2022-08-17T13:38:40.976Z,80.66
2022-08-17T13:41:08.754Z,79.71
2022-08-17T13:43:44.437Z,78.55
2022-08-17T13:46:18.531Z,79.08
2022-08-17T13:48:47.365Z,78.74
2022-08-17T13:51:33.419Z,78.27
2022-08-17T13:54:07.060Z,77.84
2022-08-17T13:56:47.435Z,78.26
2022-08-17T13:59:52.776Z,74.89
2022-08-17T14:02:13.521Z,76.12
2022-08-17T14:04:43.391Z,76.52
2022-08-17T14:07:27.809Z,73.49
2022-08-17T14:09:59.845Z,66.96
2022-08-17T14:12:31.235Z,67.32
2022-08-17T14:15:00.672Z,63.19
2022-08-17T14:17:34.940Z,63.29
2022-08-17T14:20:06.994Z,63.60
2022-08-17T14:22:36.891Z,63.70
2022-08-17T14:25:08.683Z,61.53
2022-08-17T14:27:52.326Z,60.27
2022-08-17T14:30:25.697Z,57.79
2022-08-17T14:32:57.889Z,58.20
2022-08-17T14:35:27.303Z,58.83
2022-08-17T14:37:54.908Z,58.14
2022-08-17T14:40:25.418Z,58.81
2022-08-17T14:42:54.948Z,60.29
2022-08-17T14:45:29.629Z,58.17
2022-08-17T14:48:02.565Z,55.66
2022-08-17T14:50:30.033Z,56.56
2022-08-17T14:53:01.449Z,55.86
2022-08-17T14:55:30.923Z,54.76
2022-08-17T14:57:58.486Z,52.00
2022-08-17T15:00:26.754Z,52.26
2022-08-17T15:02:56.585Z,49.68
2022-08-17T15:05:26.134Z,49.94
2022-08-17T15:07:55.666Z,51.71
2022-08-17T15:10:25.695Z,50.72
2022-08-17T15:12:55.074Z,48.84
2022-08-17T15:15:23.012Z,47.35
2022-08-17T15:17:51.505Z,47.88
2022-08-17T15:20:21.192Z,49.98
2022-08-17T15:22:50.592Z,49.34
2022-08-17T15:25:19.786Z,49.78
2022-08-17T15:27:47.469Z,50.34
2022-08-17T15:30:16.736Z,50.38
2022-08-17T15:32:50.619Z,50.98
2022-08-17T15:35:19.760Z,48.72
2022-08-17T15:37:56.420Z,48.49
2022-08-17T15:40:24.964Z,49.44
2022-08-17T15:42:52.588Z,52.02
2022-08-17T15:45:26.865Z,50.74
2022-08-17T15:47:54.344Z,56.14
2022-08-17T15:50:22.401Z,58.48
2022-08-17T15:52:56.727Z,57.02
2022-08-17T15:55:24.940Z,56.79
2022-08-17T15:57:53.074Z,56.55
2022-08-17T16:00:23.825Z,57.35
2022-08-17T16:03:46.148Z,56.64
2022-08-17T16:05:40.771Z,54.39
2022-08-17T16:08:08.854Z,55.73
2022-08-17T16:10:36.858Z,57.37
2022-08-17T16:13:05.183Z,56.63
2022-08-17T16:15:56.682Z,57.68
2022-08-17T16:18:28.163Z,58.00
2022-08-17T16:20:55.677Z,57.91
2022-08-17T16:23:23.764Z,59.54
2022-08-17T16:25:53.814Z,60.78
2022-08-17T16:28:23.306Z,58.53
2022-08-17T16:31:05.722Z,59.49
2022-08-17T16:33:36.323Z,58.21
2022-08-17T16:36:04.278Z,59.09
2022-08-17T16:38:31.774Z,59.10
2022-08-17T16:40:59.648Z,57.06
2022-08-17T16:43:27.168Z,58.76
2022-08-17T16:45:54.618Z,58.76
2022-08-17T16:48:23.802Z,60.42
2022-08-17T16:51:03.638Z,60.13
2022-08-17T16:53:31.916Z,59.72
2022-08-17T16:55:59.422Z,60.28
2022-08-17T16:58:26.867Z,59.84
2022-08-17T17:00:59.476Z,60.39
2022-08-17T17:03:31.629Z,60.29
2022-08-17T17:06:07.908Z,61.24
2022-08-17T17:08:44.067Z,59.00
2022-08-17T17:11:15.452Z,58.99
2022-08-17T17:13:50.044Z,58.56
2022-08-17T17:16:21.662Z,58.50
2022-08-17T17:19:05.069Z,60.15
2022-08-17T17:21:42.376Z,59.62
2022-08-17T17:24:14.868Z,59.07
2022-08-17T17:27:01.463Z,58.67
2022-08-17T17:29:47.370Z,59.51
2022-08-17T17:32:21.675Z,60.91
2022-08-17T17:34:54.528Z,60.24
2022-08-17T17:37:28.191Z,58.51
2022-08-17T17:40:00.606Z,57.77
2022-08-17T17:42:32.858Z,57.08
2022-08-17T17:45:07.788Z,56.93
2022-08-17T17:47:36.390Z,56.56
2022-08-17T17:50:07.030Z,56.23
2022-08-17T17:52:42.745Z,54.70
2022-08-17T17:55:22.759Z,54.32
2022-08-17T17:58:01.562Z,54.88
2022-08-17T18:00:37.722Z,55.43
2022-08-17T18:03:21.082Z,56.59
2022-08-17T18:06:01.474Z,57.65
2022-08-17T18:08:46.855Z,59.16
2022-08-17T18:11:27.154Z,60.13
2022-08-17T18:14:23.746Z,59.78
2022-08-17T18:16:55.564Z,60.75
2022-08-17T18:19:25.320Z,61.33
2022-08-17T18:22:02.136Z,62.28
2022-08-17T18:24:31.733Z,62.59
2022-08-17T18:27:00.965Z,62.77
2022-08-17T18:29:41.459Z,63.68
2022-08-17T18:32:17.488Z,63.95
2022-08-17T18:34:48.871Z,63.99
2022-08-17T18:37:32.170Z,64.45
2022-08-17T18:39:59.906Z,64.86
2022-08-17T18:42:30.333Z,64.72
2022-08-17T18:44:57.819Z,65.48
2022-08-17T18:47:27.442Z,65.48
2022-08-17T18:49:57.983Z,66.33
2022-08-17T18:52:30.445Z,66.53
2022-08-17T18:55:05.435Z,67.00
2022-08-17T18:57:35.641Z,67.58
2022-08-17T19:00:12.541Z,67.11
2022-08-17T19:02:52.196Z,67.73
2022-08-17T19:05:35.432Z,67.83
2022-08-17T19:08:21.239Z,68.01
2022-08-17T19:10:52.635Z,68.28
2022-08-17T19:13:25.626Z,68.34
2022-08-17T19:16:11.726Z,68.86
2022-08-17T19:18:47.297Z,69.16
2022-08-17T19:21:21.000Z,69.98
2022-08-17T19:23:54.763Z,69.94
2022-08-17T19:26:50.625Z,69.95
2022-08-17T19:29:16.476Z,70.51
2022-08-17T19:31:47.608Z,70.94
2022-08-17T19:34:30.004Z,71.44
2022-08-17T19:37:06.746Z,72.12
2022-08-17T19:39:44.414Z,73.62
2022-08-17T19:42:15.865Z,73.12
2022-08-17T19:45:01.380Z,73.58
2022-08-17T19:47:54.333Z,74.30
2022-08-17T19:50:40.967Z,74.22
2022-08-17T19:53:47.498Z,74.14
2022-08-17T19:56:29.387Z,74.65
2022-08-17T19:59:02.256Z,75.02
2022-08-17T20:01:37.649Z,74.95
2022-08-17T20:04:11.457Z,74.93
2022-08-17T20:06:43.588Z,75.23
2022-08-17T20:09:16.639Z,75.38
2022-08-17T20:11:50.615Z,76.58
2022-08-17T20:14:22.768Z,76.85
2022-08-17T20:16:50.398Z,76.67
2022-08-17T20:19:24.227Z,77.11
2022-08-17T20:21:58.381Z,77.26
2022-08-17T20:24:33.062Z,77.45
2022-08-17T20:27:14.029Z,77.47
2022-08-17T20:30:06.159Z,77.24
2022-08-17T20:32:36.231Z,77.70
2022-08-17T20:35:19.048Z,78.57
2022-08-17T20:37:53.710Z,78.55
2022-08-17T20:40:28.495Z,79.32
2022-08-17T20:42:59.210Z,79.21
2022-08-17T20:46:04.880Z,78.85
2022-08-17T20:48:40.885Z,78.92
2022-08-17T20:51:23.680Z,79.98
2022-08-17T20:54:26.305Z,80.35
2022-08-17T20:56:57.618Z,81.00
2022-08-17T21:00:18.039Z,81.52
2022-08-17T21:02:48.305Z,81.49
2022-08-17T21:05:37.208Z,82.33
2022-08-17T21:08:14.777Z,82.61
2022-08-17T21:10:46.901Z,82.28
2022-08-17T21:13:35.379Z,82.41
2022-08-17T21:16:24.133Z,82.69
2022-08-17T21:18:57.775Z,82.83
2022-08-17T21:21:32.568Z,82.87
2022-08-17T21:24:14.006Z,83.03
2022-08-17T21:26:50.781Z,82.18
2022-08-17T21:29:30.878Z,82.84
2022-08-17T21:32:24.307Z,83.51
2022-08-17T21:35:24.939Z,83.75
2022-08-17T21:37:57.148Z,82.69
2022-08-17T21:40:28.976Z,82.44
2022-08-17T21:42:59.676Z,83.46
2022-08-17T21:45:30.375Z,84.42
2022-08-17T21:48:13.822Z,84.93
2022-08-17T21:50:44.447Z,85.49
2022-08-17T21:53:23.736Z,85.84
2022-08-17T21:55:53.370Z,85.84
2022-08-17T21:58:30.294Z,86.33
2022-08-17T22:01:19.248Z,86.70
2022-08-17T22:03:56.400Z,87.91
2022-08-17T22:06:26.167Z,88.02
2022-08-17T22:09:02.661Z,87.92
2022-08-17T22:11:30.379Z,87.29
2022-08-17T22:14:05.133Z,86.37
2022-08-17T22:16:33.744Z,86.02
2022-08-17T22:19:04.816Z,86.54
2022-08-17T22:21:32.296Z,86.90
2022-08-17T22:24:05.790Z,86.98
2022-08-17T22:27:03.651Z,87.25
2022-08-17T22:29:57.497Z,88.15
2022-08-17T22:32:35.962Z,88.25
2022-08-17T22:35:19.450Z,88.29
2022-08-17T22:37:47.467Z,88.79
2022-08-17T22:40:28.051Z,88.85
2022-08-17T22:42:57.088Z,88.72
2022-08-17T22:45:25.234Z,88.87
2022-08-17T22:47:56.352Z,89.51
2022-08-17T22:50:28.672Z,89.12
2022-08-17T22:53:16.420Z,89.11
2022-08-17T22:56:08.373Z,89.36
2022-08-17T22:59:02.794Z,86.42
2022-08-17T23:01:32.328Z,86.44
2022-08-17T23:04:02.517Z,86.34
2022-08-17T23:06:33.626Z,86.96
2022-08-17T23:09:03.774Z,87.45
2022-08-17T23:11:49.476Z,87.88
2022-08-17T23:14:20.002Z,88.38
2022-08-17T23:16:48.548Z,88.92
2022-08-17T23:19:18.864Z,89.71
2022-08-17T23:21:50.904Z,90.17
2022-08-17T23:24:23.071Z,90.30
2022-08-17T23:26:51.101Z,90.21
2022-08-17T23:29:20.393Z,90.27
2022-08-17T23:31:49.110Z,90.29
2022-08-17T23:34:18.335Z,90.71
2022-08-17T23:36:50.560Z,91.10
2022-08-17T23:39:27.370Z,90.35
2022-08-17T23:41:56.160Z,88.02
2022-08-17T23:44:24.296Z,88.14
2022-08-17T23:46:52.497Z,88.71
2022-08-17T23:49:20.801Z,89.23
2022-08-17T23:51:50.016Z,89.90
2022-08-17T23:54:22.764Z,90.56
2022-08-17T23:56:50.455Z,91.11
2022-08-17T23:59:22.545Z,91.88
